Time;durP1;ratioP1;P1;durP2;ratioP2;P2;SDS_P1;SDS_P2;PMS_P1;PMS_P2;Temp;Humidity;BMP_temperature;BMP_pressure;BME280_temperature;BME280_humidity;BME280_pressure;Samples;Min_cycle;Max_cycle;Signal;HPM_P1;HPM_P2
2023/03/06 00:00:31;;;;;;;25.45;9.68;;;;;;;;;;5056272;28;20090;-67
2023/03/06 00:02:56;;;;;;;27.83;10.30;;;;;;;;;;5056301;28;20021;-67
2023/03/06 00:05:22;;;;;;;27.73;9.38;;;;;;;;;;5055918;28;20036;-67
2023/03/06 00:07:47;;;;;;;20.52;7.00;;;;;;;;;;5055923;28;20123;-69
2023/03/06 00:10:19;;;;;;;16.05;6.68;;;;;;;;;;5053131;28;20045;-68
2023/03/06 00:12:44;;;;;;;16.00;6.82;;;;;;;;;;5055876;28;20017;-69
2023/03/06 00:15:11;;;;;;;18.63;5.78;;;;;;;;;;5055690;28;20024;-66
2023/03/06 00:17:36;;;;;;;12.75;5.78;;;;;;;;;;5055754;28;20036;-67
2023/03/06 00:20:03;;;;;;;12.55;5.40;;;;;;;;;;5055787;28;20021;-67
2023/03/06 00:22:28;;;;;;;9.32;5.13;;;;;;;;;;5055611;28;20033;-67
2023/03/06 00:24:54;;;;;;;9.60;5.25;;;;;;;;;;5055437;28;20025;-67
2023/03/06 00:27:20;;;;;;;11.95;5.47;;;;;;;;;;5055702;28;20027;-68
2023/03/06 00:29:48;;;;;;;15.55;6.07;;;;;;;;;;5055710;28;20618;-68
2023/03/06 00:32:14;;;;;;;21.25;7.72;;;;;;;;;;5055543;28;20482;-67
2023/03/06 00:34:39;;;;;;;18.90;8.02;;;;;;;;;;5055500;28;20055;-66
2023/03/06 00:37:05;;;;;;;23.27;8.77;;;;;;;;;;5055285;28;20466;-68
2023/03/06 00:39:30;;;;;;;27.02;9.70;;;;;;;;;;5055181;28;20028;-67
2023/03/06 00:41:55;;;;;;;23.30;10.05;;;;;;;;;;5055448;28;20391;-67
2023/03/06 00:44:21;;;;;;;29.58;10.55;;;;;;;;;;5055400;28;20025;-67
2023/03/06 00:46:46;;;;;;;23.95;8.93;;;;;;;;;;5055190;28;20025;-67
2023/03/06 00:49:12;;;;;;;19.88;8.43;;;;;;;;;;5055088;28;20143;-67
2023/03/06 00:51:37;;;;;;;12.07;5.28;;;;;;;;;;5055157;28;20470;-69
2023/03/06 00:54:03;;;;;;;11.60;5.45;;;;;;;;;;5054890;28;20029;-67
2023/03/06 00:56:28;;;;;;;12.40;4.50;;;;;;;;;;5053648;28;20428;-70
2023/03/06 00:58:54;;;;;;;12.75;5.10;;;;;;;;;;5055015;28;20486;-66
2023/03/06 01:01:20;;;;;;;11.02;4.95;;;;;;;;;;5049225;28;20040;-67
2023/03/06 01:03:45;;;;;;;16.20;5.95;;;;;;;;;;5050428;28;20036;-65
2023/03/06 01:06:11;;;;;;;17.48;5.18;;;;;;;;;;5053413;28;20024;-66
2023/03/06 01:08:36;;;;;;;13.32;5.35;;;;;;;;;;5053203;28;20461;-65
2023/03/06 01:11:02;;;;;;;14.05;5.88;;;;;;;;;;5053367;28;20027;-66
2023/03/06 01:13:27;;;;;;;13.38;5.68;;;;;;;;;;5053331;28;20036;-65
2023/03/06 01:15:53;;;;;;;12.02;5.38;;;;;;;;;;5053335;28;20024;-66
2023/03/06 01:18:18;;;;;;;15.40;5.90;;;;;;;;;;5053113;28;20031;-66
2023/03/06 01:20:44;;;;;;;13.23;6.00;;;;;;;;;;5053320;28;20029;-66
2023/03/06 01:23:09;;;;;;;15.18;5.70;;;;;;;;;;5052874;28;20017;-66
2023/03/06 01:25:35;;;;;;;13.57;6.00;;;;;;;;;;5053153;28;20805;-66
2023/03/06 01:28:00;;;;;;;13.95;5.07;;;;;;;;;;5053071;28;20028;-67
2023/03/06 01:30:26;;;;;;;13.75;5.35;;;;;;;;;;5053238;28;20493;-65
2023/03/06 01:32:51;;;;;;;11.90;5.20;;;;;;;;;;5053612;28;20386;-67
2023/03/06 01:35:17;;;;;;;13.88;5.32;;;;;;;;;;5053573;28;20106;-66
2023/03/06 01:37:42;;;;;;;13.75;5.03;;;;;;;;;;5053226;28;20032;-67
2023/03/06 01:40:09;;;;;;;15.98;6.10;;;;;;;;;;5053545;28;20017;-66
2023/03/06 01:42:35;;;;;;;13.52;5.72;;;;;;;;;;5053352;28;20017;-66
2023/03/06 01:45:04;;;;;;;14.65;5.82;;;;;;;;;;5053236;28;20375;-67
2023/03/06 01:47:30;;;;;;;18.70;6.00;;;;;;;;;;5053093;28;20028;-66
2023/03/06 01:49:56;;;;;;;15.73;5.85;;;;;;;;;;5051781;28;20025;-66
2023/03/06 01:52:26;;;;;;;16.67;6.20;;;;;;;;;;5053192;28;20028;-66
2023/03/06 01:54:56;;;;;;;14.20;5.70;;;;;;;;;;5044894;28;20386;-66
2023/03/06 01:57:34;;;;;;;14.52;5.38;;;;;;;;;;5032898;28;20034;-67
2023/03/06 02:00:08;;;;;;;15.30;6.30;;;;;;;;;;5032928;28;20391;-66
2023/03/06 02:02:34;;;;;;;14.48;6.20;;;;;;;;;;5032926;28;20026;-68
2023/03/06 02:05:02;;;;;;;15.55;6.72;;;;;;;;;;5032792;28;20025;-69
2023/03/06 02:07:28;;;;;;;14.57;6.38;;;;;;;;;;5049108;28;20478;-67
2023/03/06 02:09:53;;;;;;;13.00;5.82;;;;;;;;;;5052686;28;20025;-67
2023/03/06 02:12:20;;;;;;;11.93;6.30;;;;;;;;;;5052731;28;20047;-67
2023/03/06 02:14:46;;;;;;;11.43;6.00;;;;;;;;;;5052817;28;20053;-66
2023/03/06 02:17:13;;;;;;;10.73;5.72;;;;;;;;;;5051222;28;20505;-67
2023/03/06 02:19:57;;;;;;;13.40;5.72;;;;;;;;;;5052385;28;20478;-67
2023/03/06 02:22:30;;;;;;;13.52;5.18;;;;;;;;;;5052507;28;20047;-67
2023/03/06 02:25:03;;;;;;;14.27;5.13;;;;;;;;;;5052570;28;20032;-68
2023/03/06 02:27:28;;;;;;;13.32;4.78;;;;;;;;;;5052519;28;20025;-67
2023/03/06 02:29:54;;;;;;;11.55;4.43;;;;;;;;;;5051216;28;20040;-68
2023/03/06 02:32:19;;;;;;;12.00;4.35;;;;;;;;;;5052463;28;20466;-68
2023/03/06 02:34:53;;;;;;;11.07;4.13;;;;;;;;;;5052146;28;20029;-68
2023/03/06 02:37:19;;;;;;;8.45;4.35;;;;;;;;;;5052263;28;20056;-67
2023/03/06 02:39:53;;;;;;;10.57;4.55;;;;;;;;;;5052309;28;20052;-67
2023/03/06 02:42:20;;;;;;;10.30;4.22;;;;;;;;;;5052353;28;20021;-67
2023/03/06 02:44:47;;;;;;;13.70;4.70;;;;;;;;;;5052824;28;20513;-66
2023/03/06 02:47:12;;;;;;;11.48;4.57;;;;;;;;;;5052635;28;20032;-67
2023/03/06 02:49:38;;;;;;;10.65;4.50;;;;;;;;;;5052542;28;20029;-66
2023/03/06 02:52:04;;;;;;;9.90;4.20;;;;;;;;;;5052694;28;20029;-66
2023/03/06 02:54:30;;;;;;;8.27;3.65;;;;;;;;;;5052397;28;20419;-68
2023/03/06 02:56:55;;;;;;;10.95;4.25;;;;;;;;;;5052473;28;20029;-66
2023/03/06 02:59:21;;;;;;;6.45;3.50;;;;;;;;;;5052717;28;20045;-67
2023/03/06 03:01:46;;;;;;;8.30;3.95;;;;;;;;;;5052058;28;20033;-67
2023/03/06 03:04:12;;;;;;;13.07;4.50;;;;;;;;;;5051877;28;20040;-66
2023/03/06 03:06:37;;;;;;;9.48;3.47;;;;;;;;;;5051673;28;20029;-67
2023/03/06 03:09:02;;;;;;;4.82;2.60;;;;;;;;;;5051949;28;20048;-66
2023/03/06 03:11:28;;;;;;;9.68;3.40;;;;;;;;;;5052620;28;20055;-66
2023/03/06 03:13:53;;;;;;;6.45;3.00;;;;;;;;;;5052495;28;20082;-67
2023/03/06 03:16:19;;;;;;;4.90;2.75;;;;;;;;;;5051042;28;20029;-67
2023/03/06 03:18:46;;;;;;;7.35;3.33;;;;;;;;;;5052202;28;20043;-66
2023/03/06 03:21:13;;;;;;;10.50;3.25;;;;;;;;;;5051728;28;20033;-66
2023/03/06 03:23:38;;;;;;;8.95;3.65;;;;;;;;;;5052376;28;20025;-67
2023/03/06 03:26:07;;;;;;;7.93;3.28;;;;;;;;;;5052297;28;20021;-68
2023/03/06 03:28:32;;;;;;;14.50;3.30;;;;;;;;;;5052302;28;20036;-68
2023/03/06 03:31:02;;;;;;;8.02;3.70;;;;;;;;;;5052290;28;20029;-67
2023/03/06 03:33:28;;;;;;;12.98;4.65;;;;;;;;;;5051464;28;20032;-66
2023/03/06 03:35:58;;;;;;;17.10;5.28;;;;;;;;;;5050294;28;20029;-66
2023/03/06 03:38:23;;;;;;;13.73;4.60;;;;;;;;;;5051487;28;20545;-67
2023/03/06 03:40:48;;;;;;;6.93;3.33;;;;;;;;;;5051606;28;20112;-66
2023/03/06 03:43:14;;;;;;;10.52;3.90;;;;;;;;;;5052164;28;20021;-67
2023/03/06 03:45:39;;;;;;;13.98;4.15;;;;;;;;;;5052062;28;20028;-67
2023/03/06 03:48:05;;;;;;;10.25;4.35;;;;;;;;;;5051917;28;20036;-67
2023/03/06 03:50:32;;;;;;;7.80;3.78;;;;;;;;;;5052145;28;20032;-67
2023/03/06 03:52:58;;;;;;;8.70;3.42;;;;;;;;;;5052151;28;20065;-67
2023/03/06 03:55:24;;;;;;;10.20;4.10;;;;;;;;;;5051751;28;20467;-67
2023/03/06 03:57:49;;;;;;;11.13;3.85;;;;;;;;;;5051995;28;20037;-67
2023/03/06 04:00:15;;;;;;;8.77;4.00;;;;;;;;;;5052114;28;20025;-67
2023/03/06 04:02:44;;;;;;;9.88;4.35;;;;;;;;;;5051279;28;20055;-67
2023/03/06 04:05:11;;;;;;;11.25;4.15;;;;;;;;;;5051352;28;20021;-67
2023/03/06 04:07:37;;;;;;;9.40;3.88;;;;;;;;;;5051169;28;20049;-67
2023/03/06 04:10:03;;;;;;;10.98;4.28;;;;;;;;;;5051287;28;20457;-68
2023/03/06 04:12:29;;;;;;;8.40;3.72;;;;;;;;;;5051702;28;20092;-68
2023/03/06 04:14:54;;;;;;;7.53;4.00;;;;;;;;;;5051633;28;20032;-67
2023/03/06 04:17:19;;;;;;;12.35;4.82;;;;;;;;;;5051766;28;20036;-67
2023/03/06 04:19:45;;;;;;;12.35;4.80;;;;;;;;;;5051816;28;20025;-66
2023/03/06 04:22:10;;;;;;;8.93;4.45;;;;;;;;;;5051793;28;20036;-67
2023/03/06 04:24:36;;;;;;;12.45;5.07;;;;;;;;;;5051829;28;20028;-66
2023/03/06 04:27:01;;;;;;;7.93;4.25;;;;;;;;;;5051778;28;20022;-66
2023/03/06 04:29:26;;;;;;;11.55;4.85;;;;;;;;;;5051468;28;20029;-67
2023/03/06 04:31:52;;;;;;;11.63;4.93;;;;;;;;;;5052161;28;20478;-67
2023/03/06 04:34:17;;;;;;;9.95;4.10;;;;;;;;;;5054720;28;20513;-66
2023/03/06 04:36:46;;;;;;;10.80;4.13;;;;;;;;;;5054593;28;20116;-67
2023/03/06 04:39:12;;;;;;;7.93;3.80;;;;;;;;;;5054475;28;20375;-67
2023/03/06 04:41:39;;;;;;;10.55;4.05;;;;;;;;;;5055015;28;20025;-68
2023/03/06 04:44:05;;;;;;;11.38;3.97;;;;;;;;;;5054967;28;20059;-68
2023/03/06 04:46:31;;;;;;;13.02;4.55;;;;;;;;;;5054979;28;20107;-67
2023/03/06 04:48:59;;;;;;;10.13;4.18;;;;;;;;;;5054461;28;20028;-67
2023/03/06 04:51:25;;;;;;;6.25;3.15;;;;;;;;;;5054489;28;20083;-67
2023/03/06 04:53:51;;;;;;;10.60;4.22;;;;;;;;;;5054687;28;20029;-66
2023/03/06 04:56:16;;;;;;;12.38;5.07;;;;;;;;;;5054445;28;20041;-68
2023/03/06 04:58:43;;;;;;;12.45;4.78;;;;;;;;;;5054312;28;20475;-67
2023/03/06 05:01:08;;;;;;;13.43;5.03;;;;;;;;;;5054543;28;20040;-67
2023/03/06 05:03:33;;;;;;;11.07;5.05;;;;;;;;;;5054205;28;20021;-66
2023/03/06 05:06:00;;;;;;;10.52;4.10;;;;;;;;;;5053873;28;20025;-67
2023/03/06 05:08:25;;;;;;;7.65;3.75;;;;;;;;;;5052835;28;20040;-67
2023/03/06 05:10:57;;;;;;;10.20;4.38;;;;;;;;;;5053980;28;20021;-67
2023/03/06 05:13:22;;;;;;;9.82;3.92;;;;;;;;;;5053703;28;20470;-67
2023/03/06 05:15:48;;;;;;;9.10;3.97;;;;;;;;;;5052409;28;20079;-66
2023/03/06 05:18:13;;;;;;;9.05;3.92;;;;;;;;;;5054388;28;20351;-68
2023/03/06 05:20:39;;;;;;;11.02;4.22;;;;;;;;;;5054378;28;20036;-67
2023/03/06 05:23:04;;;;;;;10.70;3.88;;;;;;;;;;5054235;28;20040;-67
2023/03/06 05:25:29;;;;;;;6.90;3.88;;;;;;;;;;5054313;28;20029;-67
2023/03/06 05:27:55;;;;;;;9.95;4.10;;;;;;;;;;5054089;28;20016;-67
2023/03/06 05:30:22;;;;;;;11.32;4.50;;;;;;;;;;5053967;28;20021;-68
2023/03/06 05:32:47;;;;;;;8.85;3.78;;;;;;;;;;5053492;28;20064;-67
2023/03/06 05:35:21;;;;;;;7.95;3.38;;;;;;;;;;5053352;28;20060;-66
2023/03/06 05:37:46;;;;;;;7.35;2.97;;;;;;;;;;5053301;28;20031;-66
2023/03/06 05:40:12;;;;;;;9.95;4.00;;;;;;;;;;5052433;28;20029;-67
2023/03/06 05:42:38;;;;;;;10.15;4.45;;;;;;;;;;5053123;28;20037;-67
2023/03/06 05:45:04;;;;;;;9.65;3.60;;;;;;;;;;5052538;28;20029;-66
2023/03/06 05:47:30;;;;;;;8.52;3.38;;;;;;;;;;5053753;28;20106;-66
2023/03/06 05:49:55;;;;;;;9.05;3.10;;;;;;;;;;5053732;28;20377;-66
2023/03/06 05:52:21;;;;;;;5.70;3.00;;;;;;;;;;5053839;28;20112;-66
2023/03/06 05:54:52;;;;;;;7.63;3.13;;;;;;;;;;5053234;28;20045;-66
2023/03/06 05:57:18;;;;;;;;;;;;;;;;;;5053584;28;20041;-65
2023/03/06 05:59:43;;;;;;;7.50;3.08;;;;;;;;;;5053419;28;19912;-66
2023/03/06 06:02:09;;;;;;;8.40;3.00;;;;;;;;;;5053157;28;20032;-66
2023/03/06 06:04:34;;;;;;;8.70;3.83;;;;;;;;;;5052796;28;20382;-68
2023/03/06 06:07:00;;;;;;;14.73;4.47;;;;;;;;;;5052494;28;20092;-66
2023/03/06 06:09:26;;;;;;;6.60;4.40;;;;;;;;;;5052774;28;20029;-67
2023/03/06 06:11:57;;;;;;;9.63;4.05;;;;;;;;;;5051633;28;20025;-67
2023/03/06 06:14:23;;;;;;;7.13;3.75;;;;;;;;;;5052205;28;20025;-67
2023/03/06 06:16:49;;;;;;;6.18;4.03;;;;;;;;;;5053118;28;20040;-69
2023/03/06 06:19:18;;;;;;;5.68;2.80;;;;;;;;;;5053251;28;20044;-66
2023/03/06 06:21:49;;;;;;;9.73;3.92;;;;;;;;;;5053174;28;20029;-67
2023/03/06 06:24:15;;;;;;;;;;;;;;;;;;5053562;28;20036;-68
2023/03/06 06:26:41;;;;;;;4.88;3.30;;;;;;;;;;5052764;28;19917;-69
2023/03/06 06:29:07;;;;;;;10.73;4.10;;;;;;;;;;5053048;28;20032;-68
2023/03/06 06:31:32;;;;;;;8.25;3.10;;;;;;;;;;5052599;28;20112;-67
2023/03/06 06:33:58;;;;;;;7.68;3.50;;;;;;;;;;5052314;28;20116;-68
2023/03/06 06:36:23;;;;;;;5.10;2.70;;;;;;;;;;5052033;28;20463;-67
2023/03/06 06:38:49;;;;;;;7.30;2.95;;;;;;;;;;5052277;28;20124;-67
2023/03/06 06:41:14;;;;;;;7.53;2.92;;;;;;;;;;5052246;28;20447;-67
2023/03/06 06:43:40;;;;;;;5.32;2.75;;;;;;;;;;5052669;28;20513;-67
2023/03/06 06:46:05;;;;;;;6.80;2.30;;;;;;;;;;5052581;28;20040;-67
2023/03/06 06:48:30;;;;;;;4.32;2.28;;;;;;;;;;5052407;28;20032;-66
2023/03/06 06:50:57;;;;;;;5.53;2.50;;;;;;;;;;5052689;28;20020;-68
2023/03/06 06:53:23;;;;;;;5.53;3.03;;;;;;;;;;5052466;28;20039;-68
2023/03/06 06:55:48;;;;;;;6.35;3.20;;;;;;;;;;5050849;28;20049;-67
2023/03/06 06:58:14;;;;;;;9.38;3.53;;;;;;;;;;5052307;28;20082;-68
2023/03/06 07:00:39;;;;;;;4.68;2.55;;;;;;;;;;5052236;28;20386;-67
2023/03/06 07:03:05;;;;;;;5.72;3.08;;;;;;;;;;5051758;28;20021;-67
2023/03/06 07:05:30;;;;;;;6.85;2.92;;;;;;;;;;5051534;28;20079;-68
2023/03/06 07:07:56;;;;;;;4.90;2.63;;;;;;;;;;5051455;28;20154;-68
2023/03/06 07:10:21;;;;;;;3.95;2.10;;;;;;;;;;5051482;28;20078;-68
2023/03/06 07:12:47;;;;;;;4.82;2.63;;;;;;;;;;5052326;28;20032;-67
2023/03/06 07:15:14;;;;;;;9.45;2.70;;;;;;;;;;5052144;28;20025;-67
2023/03/06 07:17:39;;;;;;;8.70;2.38;;;;;;;;;;5052148;28;20029;-67
2023/03/06 07:20:06;;;;;;;4.25;2.60;;;;;;;;;;5052182;28;20320;-67
2023/03/06 07:22:32;;;;;;;4.78;2.58;;;;;;;;;;5052179;28;20105;-67
2023/03/06 07:24:57;;;;;;;5.50;2.80;;;;;;;;;;5051929;28;20028;-67
2023/03/06 07:27:24;;;;;;;5.20;3.00;;;;;;;;;;5052019;28;20029;-67
2023/03/06 07:29:50;;;;;;;6.85;3.17;;;;;;;;;;5052023;28;20377;-67
2023/03/06 07:32:16;;;;;;;9.13;3.40;;;;;;;;;;5051609;28;20033;-67
2023/03/06 07:34:43;;;;;;;14.48;3.58;;;;;;;;;;5051515;28;20025;-67
2023/03/06 07:37:09;;;;;;;9.50;3.53;;;;;;;;;;5051418;28;20032;-69
2023/03/06 07:39:34;;;;;;;8.52;3.65;;;;;;;;;;5051319;28;20075;-67
2023/03/06 07:42:00;;;;;;;7.75;3.38;;;;;;;;;;5052124;28;20441;-67
2023/03/06 07:44:26;;;;;;;8.93;3.38;;;;;;;;;;5052089;28;20021;-67
2023/03/06 07:46:51;;;;;;;9.45;3.65;;;;;;;;;;5051947;28;20025;-67
2023/03/06 07:49:17;;;;;;;9.02;3.15;;;;;;;;;;5051715;28;20037;-67
2023/03/06 07:51:43;;;;;;;7.55;2.90;;;;;;;;;;5051904;28;20025;-69
2023/03/06 07:54:08;;;;;;;6.68;2.80;;;;;;;;;;5051642;28;20040;-67
2023/03/06 07:56:34;;;;;;;8.80;3.05;;;;;;;;;;5051550;28;20084;-68
2023/03/06 07:59:00;;;;;;;6.22;3.15;;;;;;;;;;5051788;28;20044;-68
2023/03/06 08:01:25;;;;;;;6.45;3.28;;;;;;;;;;5051309;28;20029;-68
2023/03/06 08:03:51;;;;;;;7.25;2.80;;;;;;;;;;5051280;28;20029;-68
2023/03/06 08:06:19;;;;;;;6.05;3.13;;;;;;;;;;5052512;28;20025;-68
2023/03/06 08:08:45;;;;;;;6.30;3.13;;;;;;;;;;5054807;28;20025;-69
2023/03/06 08:11:13;;;;;;;9.30;3.65;;;;;;;;;;5054546;28;20035;-68
2023/03/06 08:13:39;;;;;;;8.77;3.75;;;;;;;;;;5054628;28;20017;-67
2023/03/06 08:16:05;;;;;;;8.65;4.32;;;;;;;;;;5053113;28;20040;-69
2023/03/06 08:18:30;;;;;;;11.95;5.50;;;;;;;;;;5054358;28;20025;-67
2023/03/06 08:21:12;;;;;;;10.43;4.82;;;;;;;;;;5054380;28;20413;-68
2023/03/06 08:23:38;;;;;;;12.98;5.28;;;;;;;;;;5055324;28;20371;-67
2023/03/06 08:26:07;;;;;;;19.20;7.10;;;;;;;;;;5055566;28;20047;-67
2023/03/06 08:28:33;;;;;;;10.77;5.55;;;;;;;;;;5055620;28;20029;-67
2023/03/06 08:31:11;;;;;;;15.65;6.72;;;;;;;;;;5055002;28;20033;-68
2023/03/06 08:33:37;;;;;;;12.90;6.43;;;;;;;;;;5053281;28;20031;-67
2023/03/06 08:36:03;;;;;;;15.75;6.35;;;;;;;;;;5054366;28;20029;-68
2023/03/06 08:38:28;;;;;;;10.30;5.40;;;;;;;;;;5054044;28;20108;-67
2023/03/06 08:40:54;;;;;;;13.02;6.50;;;;;;;;;;5054243;28;20040;-67
2023/03/06 08:43:19;;;;;;;11.65;5.53;;;;;;;;;;5053972;28;20028;-67
2023/03/06 08:45:50;;;;;;;10.98;5.93;;;;;;;;;;5053846;28;20013;-67
2023/03/06 08:48:16;;;;;;;16.85;7.20;;;;;;;;;;5053882;28;20053;-67
2023/03/06 08:50:41;;;;;;;13.40;7.50;;;;;;;;;;5053471;28;20056;-67
2023/03/06 08:53:07;;;;;;;12.93;7.55;;;;;;;;;;5053737;28;20444;-67
2023/03/06 08:55:36;;;;;;;16.05;7.55;;;;;;;;;;5053188;28;20045;-68
2023/03/06 08:58:01;;;;;;;16.77;8.23;;;;;;;;;;5053966;28;20551;-67
2023/03/06 09:00:26;;;;;;;16.85;7.30;;;;;;;;;;5054746;28;20036;-68
2023/03/06 09:02:52;;;;;;;12.40;7.50;;;;;;;;;;5051412;28;20021;-67
2023/03/06 09:05:17;;;;;;;15.95;6.93;;;;;;;;;;5048994;28;20509;-68
2023/03/06 09:07:43;;;;;;;10.07;4.97;;;;;;;;;;5053036;28;20108;-68
2023/03/06 09:10:16;;;;;;;7.85;4.15;;;;;;;;;;5054881;28;20025;-68
2023/03/06 09:12:42;;;;;;;10.18;4.63;;;;;;;;;;5054721;28;20029;-68
2023/03/06 09:15:09;;;;;;;9.07;4.43;;;;;;;;;;5054365;28;20565;-67
2023/03/06 09:17:34;;;;;;;9.48;4.63;;;;;;;;;;5053277;28;20025;-67
2023/03/06 09:20:00;;;;;;;7.45;3.85;;;;;;;;;;5051110;28;20091;-67
2023/03/06 09:22:25;;;;;;;7.50;4.15;;;;;;;;;;5054202;28;20021;-67
2023/03/06 09:24:51;;;;;;;9.50;4.05;;;;;;;;;;5054160;28;20021;-69
2023/03/06 09:27:17;;;;;;;8.30;3.97;;;;;;;;;;5054230;28;20029;-67
2023/03/06 09:29:42;;;;;;;5.60;3.70;;;;;;;;;;5054344;28;20029;-68
2023/03/06 09:32:08;;;;;;;6.78;3.70;;;;;;;;;;5053171;28;20062;-67
2023/03/06 09:34:34;;;;;;;6.32;3.90;;;;;;;;;;5054283;28;20021;-67
2023/03/06 09:37:01;;;;;;;7.38;4.25;;;;;;;;;;5064968;28;20033;-66
2023/03/06 09:39:27;;;;;;;7.75;4.50;;;;;;;;;;5074320;28;20484;-67
2023/03/06 09:41:55;;;;;;;8.43;5.38;;;;;;;;;;5074088;28;20029;-69
2023/03/06 09:44:27;;;;;;;7.93;4.57;;;;;;;;;;5074082;28;20090;-68
2023/03/06 09:47:23;;;;;;;10.07;4.43;;;;;;;;;;5063902;28;20126;-67
2023/03/06 09:50:09;;;;;;;4.95;3.85;;;;;;;;;;5054542;28;20036;-67
2023/03/06 09:52:42;;;;;;;8.50;4.05;;;;;;;;;;5061655;28;20066;-65
2023/03/06 09:55:19;;;;;;;9.85;4.78;;;;;;;;;;5052765;28;20497;-65
2023/03/06 09:58:12;;;;;;;7.47;4.30;;;;;;;;;;5072912;28;20054;-68
2023/03/06 10:00:45;;;;;;;7.95;4.18;;;;;;;;;;5055962;28;20025;-67
2023/03/06 10:03:20;;;;;;;8.32;4.47;;;;;;;;;;5051787;28;20442;-68
2023/03/06 10:05:52;;;;;;;8.80;4.55;;;;;;;;;;5051848;28;20029;-68
2023/03/06 10:08:24;;;;;;;10.50;4.68;;;;;;;;;;5052481;28;20028;-67
2023/03/06 10:11:00;;;;;;;7.55;4.40;;;;;;;;;;5052951;28;20116;-67
2023/03/06 10:13:35;;;;;;;6.80;3.95;;;;;;;;;;5052036;28;20028;-68
2023/03/06 10:16:11;;;;;;;7.20;4.18;;;;;;;;;;5051440;28;20025;-69
2023/03/06 10:18:37;;;;;;;8.82;3.90;;;;;;;;;;5051488;28;20043;-69
2023/03/06 10:21:16;;;;;;;7.10;3.20;;;;;;;;;;5051888;28;20025;-68
2023/03/06 10:23:53;;;;;;;5.75;3.30;;;;;;;;;;5051463;28;20493;-68
2023/03/06 10:26:23;;;;;;;6.22;3.25;;;;;;;;;;5051399;28;20351;-69
2023/03/06 10:29:19;;;;;;;7.55;4.25;;;;;;;;;;5049946;28;20059;-67
2023/03/06 10:31:49;;;;;;;10.10;3.88;;;;;;;;;;5051715;28;20033;-68
2023/03/06 10:34:23;;;;;;;7.03;3.63;;;;;;;;;;5051857;28;20493;-67
2023/03/06 10:36:49;;;;;;;7.40;3.47;;;;;;;;;;5052143;28;20036;-69
2023/03/06 10:39:18;;;;;;;6.72;3.20;;;;;;;;;;5053141;28;20110;-68
2023/03/06 10:41:44;;;;;;;13.27;3.35;;;;;;;;;;5052986;28;20021;-69
2023/03/06 10:44:10;;;;;;;9.23;2.80;;;;;;;;;;5053136;28;20029;-69
2023/03/06 10:46:43;;;;;;;6.00;2.45;;;;;;;;;;5052895;28;20124;-68
2023/03/06 10:49:26;;;;;;;13.20;2.80;;;;;;;;;;5052984;28;20025;-69
2023/03/06 10:51:59;;;;;;;5.57;2.80;;;;;;;;;;5052985;28;20040;-68
2023/03/06 10:54:25;;;;;;;5.40;2.45;;;;;;;;;;5052767;28;20471;-69
2023/03/06 10:56:51;;;;;;;4.20;2.08;;;;;;;;;;5052786;28;20048;-69
2023/03/06 10:59:24;;;;;;;14.82;3.92;;;;;;;;;;5052726;28;20352;-69
2023/03/06 11:01:57;;;;;;;5.13;2.05;;;;;;;;;;5052367;28;20049;-69
2023/03/06 11:04:30;;;;;;;29.60;4.18;;;;;;;;;;5052710;28;20371;-69
2023/03/06 11:07:17;;;;;;;10.45;2.00;;;;;;;;;;5052739;28;20060;-68
2023/03/06 11:10:18;;;;;;;4.63;1.48;;;;;;;;;;5052686;28;20101;-69
2023/03/06 11:13:01;;;;;;;3.50;1.67;;;;;;;;;;5052723;28;20052;-66
2023/03/06 11:15:28;;;;;;;7.82;2.03;;;;;;;;;;5052543;28;20111;-69
2023/03/06 11:18:07;;;;;;;6.60;1.83;;;;;;;;;;5052400;28;20029;-69
2023/03/06 11:20:48;;;;;;;32.85;5.70;;;;;;;;;;5052451;28;20029;-69
2023/03/06 11:23:19;;;;;;;5.28;1.77;;;;;;;;;;5052687;28;20045;-68
2023/03/06 11:25:53;;;;;;;3.63;1.80;;;;;;;;;;5052650;28;20029;-67
2023/03/06 11:28:31;;;;;;;18.13;2.30;;;;;;;;;;5052610;28;20029;-67
2023/03/06 11:31:15;;;;;;;20.73;4.25;;;;;;;;;;5052327;28;20021;-68
2023/03/06 11:34:01;;;;;;;17.20;3.03;;;;;;;;;;5052499;28;20104;-68
2023/03/06 11:36:35;;;;;;;17.48;4.03;;;;;;;;;;5052168;28;20017;-68
2023/03/06 11:39:03;;;;;;;5.53;1.50;;;;;;;;;;5052524;28;20055;-68
2023/03/06 11:41:43;;;;;;;10.85;2.80;;;;;;;;;;5054148;28;20468;-68
2023/03/06 11:44:54;;;;;;;7.97;2.55;;;;;;;;;;5056615;28;20025;-69
2023/03/06 11:47:33;;;;;;;8.88;2.53;;;;;;;;;;5034270;28;20052;-67
2023/03/06 11:50:22;;;;;;;11.30;3.60;;;;;;;;;;5034332;28;20037;-67
2023/03/06 11:52:56;;;;;;;6.85;2.63;;;;;;;;;;5034350;28;20049;-67
2023/03/06 11:55:45;;;;;;;3.45;1.33;;;;;;;;;;5033714;28;20530;-66
2023/03/06 11:58:35;;;;;;;19.53;2.67;;;;;;;;;;5034165;28;20045;-67
2023/03/06 12:01:06;;;;;;;9.05;2.20;;;;;;;;;;5033545;28;20589;-67
2023/03/06 12:03:53;;;;;;;4.75;1.80;;;;;;;;;;5033472;28;20033;-67
2023/03/06 12:06:26;;;;;;;9.82;2.30;;;;;;;;;;5033690;28;20434;-67
2023/03/06 12:09:11;;;;;;;7.70;1.63;;;;;;;;;;5033988;28;20120;-67
2023/03/06 12:12:05;;;;;;;5.32;2.17;;;;;;;;;;5034095;28;20514;-67
2023/03/06 12:14:40;;;;;;;3.80;1.40;;;;;;;;;;5033666;28;20479;-66
2023/03/06 12:17:12;;;;;;;8.63;2.88;;;;;;;;;;5033815;28;20065;-67
2023/03/06 12:19:59;;;;;;;5.75;1.83;;;;;;;;;;5033794;28;20033;-67
2023/03/06 12:22:51;;;;;;;7.88;1.90;;;;;;;;;;5035518;28;20047;-67
2023/03/06 12:25:47;;;;;;;5.80;1.90;;;;;;;;;;5035526;28;20017;-69
2023/03/06 12:28:29;;;;;;;7.22;1.40;;;;;;;;;;5035226;28;20088;-69
2023/03/06 12:31:13;;;;;;;3.92;1.50;;;;;;;;;;5035617;28;20080;-68
2023/03/06 12:33:58;;;;;;;5.07;2.13;;;;;;;;;;5035679;28;20040;-69
2023/03/06 12:36:45;;;;;;;5.57;2.20;;;;;;;;;;5035377;28;20040;-70
2023/03/06 12:39:14;;;;;;;3.10;1.45;;;;;;;;;;5035687;28;20029;-69
2023/03/06 12:41:45;;;;;;;5.32;1.95;;;;;;;;;;5035439;28;20029;-69
2023/03/06 12:44:48;;;;;;;7.20;2.10;;;;;;;;;;5035284;28;20029;-69
2023/03/06 12:47:18;;;;;;;14.07;3.05;;;;;;;;;;5035328;28;20184;-69
2023/03/06 12:49:52;;;;;;;17.63;4.72;;;;;;;;;;5035274;28;20030;-69
2023/03/06 12:52:28;;;;;;;8.52;1.80;;;;;;;;;;5034308;28;20112;-67
2023/03/06 12:54:57;;;;;;;4.35;1.45;;;;;;;;;;5042858;28;20057;-68
2023/03/06 12:57:24;;;;;;;7.15;1.55;;;;;;;;;;5054810;28;20041;-69
2023/03/06 12:59:50;;;;;;;2.60;1.30;;;;;;;;;;5055009;28;20466;-68
2023/03/06 13:02:28;;;;;;;5.50;1.95;;;;;;;;;;5055032;28;20037;-69
2023/03/06 13:05:09;;;;;;;5.38;1.33;;;;;;;;;;5055079;28;20025;-69
2023/03/06 13:08:06;;;;;;;7.90;1.70;;;;;;;;;;5054950;28;20025;-68
2023/03/06 13:10:33;;;;;;;14.27;3.97;;;;;;;;;;5054806;28;20029;-68
2023/03/06 13:13:00;;;;;;;9.95;3.83;;;;;;;;;;5054640;28;20064;-69
2023/03/06 13:15:41;;;;;;;9.05;2.10;;;;;;;;;;5054710;28;20017;-69
2023/03/06 13:18:21;;;;;;;4.53;1.17;;;;;;;;;;5054707;28;20029;-68
2023/03/06 13:20:53;;;;;;;4.57;1.77;;;;;;;;;;5055067;28;20068;-69
2023/03/06 13:23:27;;;;;;;6.13;1.77;;;;;;;;;;5054641;28;20029;-69
2023/03/06 13:25:54;;;;;;;6.03;2.17;;;;;;;;;;5054387;28;20425;-68
2023/03/06 13:28:43;;;;;;;14.85;2.08;;;;;;;;;;5054522;28;20478;-68
2023/03/06 13:31:08;;;;;;;4.03;1.50;;;;;;;;;;5054432;28;20033;-69
2023/03/06 13:33:35;;;;;;;5.82;1.77;;;;;;;;;;5054568;28;20496;-69
2023/03/06 13:36:19;;;;;;;10.60;2.17;;;;;;;;;;5054299;28;20021;-68
2023/03/06 13:38:47;;;;;;;6.18;1.30;;;;;;;;;;5054554;28;20486;-67
2023/03/06 13:41:21;;;;;;;26.60;8.55;;;;;;;;;;5052835;28;20418;-66
2023/03/06 13:43:58;;;;;;;6.35;1.83;;;;;;;;;;5054339;28;20359;-66
2023/03/06 13:46:36;;;;;;;5.40;1.42;;;;;;;;;;5054422;28;20505;-68
2023/03/06 13:49:07;;;;;;;3.83;1.55;;;;;;;;;;5054190;28;20032;-67
2023/03/06 13:51:36;;;;;;;8.95;2.50;;;;;;;;;;5052748;28;20559;-68
2023/03/06 13:54:07;;;;;;;4.20;1.42;;;;;;;;;;5053925;28;20429;-68
2023/03/06 13:56:51;;;;;;;3.00;1.10;;;;;;;;;;5053633;28;20044;-70
2023/03/06 13:59:26;;;;;;;6.22;1.70;;;;;;;;;;5054084;28;20436;-70
2023/03/06 14:02:00;;;;;;;4.53;1.58;;;;;;;;;;5053917;28;20489;-67
2023/03/06 14:04:35;;;;;;;4.72;1.50;;;;;;;;;;5053379;28;20423;-67
2023/03/06 14:07:18;;;;;;;5.20;1.73;;;;;;;;;;5053825;28;20036;-69
2023/03/06 14:09:46;;;;;;;6.68;1.30;;;;;;;;;;5053691;28;20176;-69
2023/03/06 14:12:23;;;;;;;3.83;1.20;;;;;;;;;;5053531;28;20021;-69
2023/03/06 14:14:57;;;;;;;6.70;1.60;;;;;;;;;;5053674;28;20037;-68
2023/03/06 14:17:33;;;;;;;5.72;1.17;;;;;;;;;;5053468;28;20029;-69
2023/03/06 14:20:18;;;;;;;11.77;1.55;;;;;;;;;;5053597;28;20060;-69
2023/03/06 14:22:43;;;;;;;3.95;1.10;;;;;;;;;;5053407;28;20504;-69
2023/03/06 14:25:11;;;;;;;6.57;1.60;;;;;;;;;;5053161;28;20036;-69
2023/03/06 14:27:44;;;;;;;4.28;1.13;;;;;;;;;;5053408;28;20025;-69
2023/03/06 14:30:15;;;;;;;4.03;1.10;;;;;;;;;;5053451;28;20029;-69
2023/03/06 14:32:41;;;;;;;2.92;1.10;;;;;;;;;;5051928;28;20052;-69
2023/03/06 14:35:28;;;;;;;6.72;1.45;;;;;;;;;;5053214;28;20025;-69
2023/03/06 14:38:00;;;;;;;9.23;1.38;;;;;;;;;;5053187;28;20025;-69
2023/03/06 14:40:30;;;;;;;4.45;1.17;;;;;;;;;;5052820;28;20494;-68
2023/03/06 14:43:17;;;;;;;4.43;1.58;;;;;;;;;;5053302;28;20111;-69
2023/03/06 14:46:16;;;;;;;8.02;1.70;;;;;;;;;;5053052;28;20386;-68
2023/03/06 14:48:44;;;;;;;5.35;1.15;;;;;;;;;;5053123;28;20033;-68
2023/03/06 14:51:19;;;;;;;3.53;1.00;;;;;;;;;;5051756;28;20023;-68
2023/03/06 14:53:48;;;;;;;7.45;2.92;;;;;;;;;;5052615;28;20028;-67